createdAt,value
2018-07-15T00:00:35.070Z,93.20
2018-07-15T00:05:29.717Z,93.40
2018-07-15T00:10:25.247Z,93.80
2018-07-15T00:20:15.653Z,95.50
2018-07-15T00:25:10.572Z,96.20
2018-07-15T00:30:06.224Z,96.40
2018-07-15T00:35:01.107Z,97.10
2018-07-15T00:39:56.468Z,97.70
2018-07-15T00:44:50.941Z,98.40
2018-07-15T00:49:48.274Z,99.00
2018-07-15T00:54:43.853Z,99.80
2018-07-15T00:59:39.095Z,99.90
2018-07-15T01:04:33.953Z,99.90
2018-07-15T01:09:29.249Z,99.90
2018-07-15T01:14:24.150Z,99.90
2018-07-15T01:19:19.188Z,99.90
2018-07-15T01:34:02.318Z,99.90
2018-07-15T01:38:59.558Z,99.90
2018-07-15T01:43:54.502Z,99.90
2018-07-15T01:48:49.041Z,99.90
2018-07-15T01:53:43.774Z,99.90
2018-07-15T01:58:38.363Z,99.90
2018-07-15T02:03:34.928Z,99.90
2018-07-15T02:08:30.175Z,99.90
2018-07-15T02:13:24.732Z,99.90
2018-07-15T02:18:19.476Z,99.90
2018-07-15T02:23:14.086Z,99.90
2018-07-15T02:28:08.795Z,99.90
2018-07-15T02:33:03.330Z,99.90
2018-07-15T02:37:58.117Z,99.90
2018-07-15T02:42:52.648Z,99.90
2018-07-15T02:47:48.591Z,99.90
2018-07-15T02:52:43.487Z,99.90
2018-07-15T03:02:32.654Z,99.90
2018-07-15T03:17:16.263Z,99.90
2018-07-15T03:27:05.449Z,99.90
2018-07-15T03:32:02.003Z,99.90
2018-07-15T03:36:56.616Z,99.90
2018-07-15T03:41:51.538Z,99.90
2018-07-15T03:51:40.489Z,99.90
2018-07-15T03:56:35.082Z,99.90
2018-07-15T04:06:24.376Z,99.90
2018-07-15T04:11:18.982Z,99.90
2018-07-15T04:16:13.569Z,99.90
2018-07-15T04:21:08.082Z,99.90
2018-07-15T04:26:02.769Z,99.90
2018-07-15T04:30:57.366Z,99.90
2018-07-15T04:35:52.203Z,99.90
2018-07-15T04:40:46.911Z,99.90
2018-07-15T04:45:42.042Z,99.90
2018-07-15T04:50:36.948Z,99.90
2018-07-15T04:55:31.485Z,99.90
2018-07-15T05:00:25.977Z,99.90
2018-07-15T05:05:21.669Z,99.90
2018-07-15T05:10:16.287Z,99.90
2018-07-15T05:20:05.558Z,99.90
2018-07-15T05:25:00.122Z,99.90
2018-07-15T05:29:55.194Z,99.90
2018-07-15T05:34:49.799Z,97.30
2018-07-15T05:39:44.500Z,90.10
2018-07-15T05:44:39.307Z,76.20
2018-07-15T05:54:28.638Z,53.60
2018-07-15T05:59:23.701Z,46.60
2018-07-15T06:04:19.134Z,42.90
2018-07-15T06:09:13.913Z,38.50
2018-07-15T06:14:09.182Z,36.50
2018-07-15T06:19:04.223Z,32.80
2018-07-15T06:23:59.062Z,30.10
2018-07-15T06:28:53.810Z,29.10
2018-07-15T06:33:48.700Z,27.60
2018-07-15T06:38:43.442Z,27.40
2018-07-15T06:43:38.186Z,26.50
2018-07-15T06:48:32.948Z,25.90
2018-07-15T06:53:27.799Z,24.70
2018-07-15T06:58:22.750Z,23.10
2018-07-15T07:03:17.586Z,21.80
2018-07-15T07:08:12.895Z,21.30
2018-07-15T07:13:07.795Z,21.10
2018-07-15T07:18:03.254Z,21.20
2018-07-15T07:22:58.604Z,20.30
2018-07-15T07:27:53.681Z,19.80
2018-07-15T07:32:48.576Z,19.40
2018-07-15T07:37:43.404Z,18.50
2018-07-15T07:42:38.202Z,18.40
2018-07-15T07:47:33.080Z,17.80
2018-07-15T07:52:28.035Z,17.40
2018-07-15T07:57:22.753Z,18.00
2018-07-15T08:02:17.698Z,17.80
2018-07-15T08:07:12.457Z,17.30
2018-07-15T08:17:02.705Z,17.50
2018-07-15T08:21:57.790Z,16.70
2018-07-15T08:26:52.515Z,16.00
2018-07-15T08:31:47.209Z,15.90
2018-07-15T08:36:42.423Z,15.20
2018-07-15T08:41:37.156Z,14.50
2018-07-15T08:46:31.908Z,14.20
2018-07-15T08:56:21.514Z,13.30
2018-07-15T09:01:16.222Z,13.10
2018-07-15T09:06:11.268Z,12.80
2018-07-15T09:11:18.941Z,12.50
2018-07-15T09:16:14.038Z,11.80
2018-07-15T09:21:08.977Z,11.40
2018-07-15T09:26:04.162Z,11.70
2018-07-15T09:30:58.881Z,11.60
2018-07-15T09:35:54.351Z,11.20
2018-07-15T09:40:49.155Z,11.60
2018-07-15T09:45:43.956Z,11.80
2018-07-15T09:50:39.046Z,11.90
2018-07-15T09:55:33.835Z,12.00
2018-07-15T10:00:33.846Z,13.40
2018-07-15T10:05:28.778Z,16.40
2018-07-15T10:24:12.627Z,22.00
2018-07-15T10:29:07.717Z,28.40
2018-07-15T10:34:02.440Z,30.40
2018-07-15T10:38:57.208Z,32.50
2018-07-15T10:43:52.105Z,33.50
2018-07-15T10:48:46.948Z,35.00
2018-07-15T10:53:41.696Z,34.50
2018-07-15T10:58:36.584Z,34.00
2018-07-15T11:03:31.525Z,35.60
2018-07-15T11:08:26.322Z,35.40
2018-07-15T11:13:21.112Z,35.10
2018-07-15T11:18:15.877Z,35.00
2018-07-15T11:28:05.196Z,36.40
2018-07-15T11:37:54.799Z,35.30
2018-07-15T11:42:49.631Z,35.40
2018-07-15T11:47:44.264Z,35.90
2018-07-15T11:52:39.025Z,35.20
2018-07-15T11:57:33.519Z,34.60
2018-07-15T12:02:27.991Z,33.10
2018-07-15T12:07:22.761Z,33.00
2018-07-15T12:12:17.221Z,32.60
2018-07-15T12:17:12.007Z,33.00
2018-07-15T12:27:05.123Z,32.30
2018-07-15T12:31:59.870Z,31.30
2018-07-15T12:36:54.988Z,30.60
2018-07-15T12:41:49.885Z,30.90
2018-07-15T12:46:44.869Z,31.20
2018-07-15T12:51:39.838Z,30.30
2018-07-15T12:56:34.701Z,30.10
2018-07-15T13:01:29.483Z,31.20
2018-07-15T13:06:24.290Z,31.20
2018-07-15T13:11:19.020Z,29.90
2018-07-15T13:16:14.799Z,30.10
2018-07-15T13:26:04.211Z,31.30
2018-07-15T13:30:59.000Z,30.60
2018-07-15T13:35:54.245Z,31.80
2018-07-15T13:40:49.376Z,32.80
2018-07-15T13:45:44.135Z,32.50
2018-07-15T13:50:39.213Z,31.60
2018-07-15T13:55:34.598Z,31.20
2018-07-15T14:05:24.102Z,30.70
2018-07-15T14:10:18.849Z,30.00
2018-07-15T14:15:27.748Z,29.70
2018-07-15T14:20:22.496Z,29.40
2018-07-15T14:30:11.853Z,29.70
2018-07-15T14:35:07.098Z,30.10
2018-07-15T14:40:01.945Z,30.10
2018-07-15T14:44:57.416Z,30.40
2018-07-15T14:49:52.324Z,29.50
2018-07-15T14:54:47.182Z,29.70
2018-07-15T14:59:41.998Z,30.00
2018-07-15T15:04:37.210Z,30.00
2018-07-15T15:09:32.308Z,29.80
2018-07-15T15:14:27.252Z,30.00
2018-07-15T15:19:22.050Z,29.70
2018-07-15T15:24:17.284Z,29.80
2018-07-15T15:29:12.055Z,30.00
2018-07-15T15:34:07.069Z,29.90
2018-07-15T15:39:01.859Z,29.60
2018-07-15T15:48:51.109Z,29.60
2018-07-15T15:53:45.863Z,29.20
2018-07-15T15:58:40.633Z,29.40
2018-07-15T16:03:35.628Z,29.50
2018-07-15T16:08:30.438Z,29.60
2018-07-15T16:13:25.287Z,29.60
2018-07-15T16:18:20.276Z,29.70
2018-07-15T16:28:09.814Z,29.00
2018-07-15T16:33:04.943Z,29.10
2018-07-15T16:38:00.280Z,28.90
2018-07-15T16:42:55.060Z,28.90
2018-07-15T16:47:49.864Z,28.70
2018-07-15T16:52:45.012Z,28.80
2018-07-15T16:57:39.962Z,29.30
2018-07-15T17:02:34.740Z,29.10
2018-07-15T17:07:30.135Z,29.30
2018-07-15T17:12:24.680Z,29.00
2018-07-15T17:17:19.558Z,30.10
2018-07-15T17:22:14.058Z,30.00
2018-07-15T17:36:57.954Z,30.00
2018-07-15T17:41:52.450Z,30.30
2018-07-15T17:51:41.463Z,31.00
2018-07-15T17:56:37.014Z,31.30
2018-07-15T18:01:31.794Z,31.20
2018-07-15T18:06:26.380Z,31.30
2018-07-15T18:11:21.107Z,31.50
2018-07-15T18:21:10.156Z,32.60
2018-07-15T18:26:04.987Z,32.30
2018-07-15T18:30:59.511Z,32.40
2018-07-15T18:35:54.206Z,32.00
2018-07-15T18:40:48.758Z,32.10
2018-07-15T18:50:38.024Z,32.50
2018-07-15T18:55:32.994Z,32.40
2018-07-15T19:00:27.483Z,32.60
2018-07-15T19:05:22.308Z,32.20
2018-07-15T19:10:16.808Z,33.00
2018-07-15T19:15:11.294Z,33.70
2018-07-15T19:20:06.391Z,33.10
2018-07-15T19:25:01.907Z,33.60
2018-07-15T19:29:56.646Z,33.60
2018-07-15T19:34:53.699Z,34.20
2018-07-15T19:39:48.244Z,35.00
2018-07-15T19:44:42.756Z,35.60
2018-07-15T19:49:37.464Z,36.00
2018-07-15T19:54:32.280Z,36.20
2018-07-15T20:04:21.190Z,37.00
2018-07-15T20:09:16.306Z,37.40
2018-07-15T20:14:10.822Z,37.80
2018-07-15T20:19:05.334Z,38.10
2018-07-15T20:23:59.892Z,38.50
2018-07-15T20:28:54.680Z,38.40
2018-07-15T20:33:49.222Z,38.80
2018-07-15T20:38:43.732Z,39.20
2018-07-15T20:43:38.274Z,40.40
2018-07-15T20:53:27.749Z,40.70
2018-07-15T20:58:22.219Z,41.10
2018-07-15T21:03:16.759Z,41.40
2018-07-15T21:08:11.320Z,42.30
2018-07-15T21:18:00.713Z,43.00
2018-07-15T21:23:05.642Z,43.60
2018-07-15T21:28:00.594Z,44.50
2018-07-15T21:32:55.097Z,45.20
2018-07-15T21:42:44.148Z,46.20
2018-07-15T21:47:38.899Z,47.30
2018-07-15T21:52:33.920Z,47.10
2018-07-15T21:57:28.442Z,47.50
2018-07-15T22:02:22.971Z,48.00
2018-07-15T22:07:34.489Z,48.30
2018-07-15T22:12:28.976Z,48.60
2018-07-15T22:22:18.316Z,50.20
2018-07-15T22:27:13.125Z,50.40
2018-07-15T22:32:08.164Z,50.60
2018-07-15T22:37:03.138Z,51.40
2018-07-15T22:46:53.041Z,53.20
2018-07-15T22:51:48.062Z,53.70
2018-07-15T22:56:43.182Z,54.00
2018-07-15T23:01:38.170Z,54.70
2018-07-15T23:06:37.092Z,54.80
2018-07-15T23:11:32.297Z,55.30
2018-07-15T23:16:27.657Z,55.90
2018-07-15T23:21:22.468Z,57.30
2018-07-15T23:26:17.184Z,57.90
2018-07-15T23:31:12.594Z,58.30
2018-07-15T23:36:07.416Z,59.10
2018-07-15T23:41:01.959Z,59.90
2018-07-15T23:50:50.766Z,63.40
2018-07-15T23:55:45.335Z,66.10
